Agnes, Georgia
Current Conditions -  °F | °C
As of 9:15 AM on Saturday 20 Dec 2014 (Local Time) from KHQU Reporting Station
Overcast Overcast  
Wind Chill: 50°   Ceiling: 300
Heat Index: 50°   Visibility: 2.5mi
Dew Point: 50°   Wind: 0mph
Humidity: 100%   Direction: NA
Pressure: 30.24"   Gusts: NA
Location:  33.7816°N, 82.4511°W
Report Text: KHQU 201415Z AUTO 00000KT 2 1/2SM OVC003 10/10 A3024 RMK AO1 T01000100
Loading
Personal Weather Stations






























Interactive Weather Map New forecast layout! Learn more

10-Day Weather Forecast

Advertisements
Track Severe Weather on mobile